createdAt,value
2023-04-26T00:00:02.501Z,6.63
2023-04-26T00:01:02.490Z,6.63
2023-04-26T00:02:02.468Z,6.60
2023-04-26T00:03:02.576Z,6.64
2023-04-26T00:04:02.775Z,6.62
2023-04-26T00:05:02.694Z,6.49
2023-04-26T00:06:02.480Z,6.63
2023-04-26T00:07:02.415Z,6.56
2023-04-26T00:08:02.422Z,6.66
2023-04-26T00:09:02.421Z,6.62
2023-04-26T00:10:02.382Z,6.67
2023-04-26T00:11:02.581Z,6.63
2023-04-26T00:12:02.380Z,6.63
2023-04-26T00:13:02.350Z,6.62
2023-04-26T00:14:02.399Z,6.63
2023-04-26T00:15:02.327Z,6.52
2023-04-26T00:16:02.322Z,6.62
2023-04-26T00:17:02.303Z,6.54
2023-04-26T00:18:02.475Z,6.51
2023-04-26T00:19:02.282Z,6.42
2023-04-26T00:20:02.293Z,6.52
2023-04-26T00:21:02.261Z,6.42
2023-04-26T00:22:02.253Z,6.44
2023-04-26T00:23:02.238Z,6.44
2023-04-26T00:24:02.235Z,6.44
2023-04-26T00:25:02.235Z,6.39
2023-04-26T00:26:02.222Z,6.36
2023-04-26T00:27:02.221Z,6.38
2023-04-26T00:28:02.186Z,6.35
2023-04-26T00:29:02.177Z,6.35
2023-04-26T00:30:02.186Z,6.31
2023-04-26T00:31:02.148Z,6.27
2023-04-26T00:32:02.246Z,6.30
2023-04-26T00:33:02.201Z,6.26
2023-04-26T00:34:02.173Z,6.24
2023-04-26T00:35:02.115Z,6.24
2023-04-26T00:36:02.102Z,6.24
2023-04-26T00:37:02.081Z,6.22
2023-04-26T00:38:02.086Z,6.28
2023-04-26T00:39:02.100Z,6.27
2023-04-26T00:40:02.130Z,6.26
2023-04-26T00:41:02.040Z,6.27
2023-04-26T00:42:02.040Z,6.30
2023-04-26T00:43:02.027Z,6.33
2023-04-26T00:44:02.073Z,6.24
2023-04-26T00:45:02.043Z,6.26
2023-04-26T00:46:02.041Z,6.27
2023-04-26T00:47:01.997Z,6.17
2023-04-26T00:48:02.021Z,6.24
2023-04-26T00:49:01.961Z,6.20
2023-04-26T00:50:02.011Z,6.16
2023-04-26T00:51:01.984Z,6.22
2023-04-26T00:52:01.916Z,6.24
2023-04-26T00:53:01.895Z,6.26
2023-04-26T00:54:01.908Z,6.14
2023-04-26T00:55:01.905Z,6.17
2023-04-26T00:56:01.938Z,6.19
2023-04-26T00:57:01.853Z,6.14
2023-04-26T00:58:01.850Z,6.04
2023-04-26T00:59:01.871Z,6.12
2023-04-26T01:00:01.844Z,6.02
2023-04-26T01:01:01.840Z,6.07
2023-04-26T01:02:01.818Z,5.98
2023-04-26T01:03:01.945Z,5.98
2023-04-26T01:04:02.162Z,6.04
2023-04-26T01:05:01.785Z,6.05
2023-04-26T01:06:01.810Z,6.09
2023-04-26T01:07:01.745Z,6.09
2023-04-26T01:08:01.737Z,6.02
2023-04-26T01:09:01.776Z,6.04
2023-04-26T01:10:01.737Z,5.99
2023-04-26T01:11:01.704Z,5.97
2023-04-26T01:12:01.695Z,5.93
2023-04-26T01:13:01.685Z,5.91
2023-04-26T01:14:01.715Z,5.94
2023-04-26T01:15:01.672Z,5.94
2023-04-26T01:16:01.664Z,5.97
2023-04-26T01:17:01.677Z,5.91
2023-04-26T01:18:01.710Z,5.83
2023-04-26T01:19:01.729Z,5.86
2023-04-26T01:20:01.598Z,5.86
2023-04-26T01:21:03.456Z,5.90
2023-04-26T01:22:01.581Z,5.93
2023-04-26T01:23:01.580Z,5.84
2023-04-26T01:24:02.204Z,5.86
2023-04-26T01:25:01.543Z,5.83
2023-04-26T01:26:01.608Z,5.84
2023-04-26T01:27:01.525Z,5.86
2023-04-26T01:28:01.540Z,5.90
2023-04-26T01:29:01.498Z,5.82
2023-04-26T01:30:01.483Z,5.84
2023-04-26T01:31:01.554Z,5.83
2023-04-26T01:32:01.466Z,5.79
2023-04-26T01:33:01.498Z,5.76
2023-04-26T01:34:01.452Z,5.86
2023-04-26T01:35:01.446Z,5.82
2023-04-26T01:36:01.423Z,5.86
2023-04-26T01:37:01.424Z,5.69
2023-04-26T01:38:01.408Z,5.79
2023-04-26T01:39:01.390Z,5.75
2023-04-26T01:40:01.406Z,5.83
2023-04-26T01:41:01.402Z,5.79
2023-04-26T01:42:01.353Z,5.82
2023-04-26T01:43:01.341Z,5.79
2023-04-26T01:44:01.339Z,5.80
2023-04-26T01:45:01.391Z,5.76
2023-04-26T01:46:01.351Z,5.72
2023-04-26T01:47:01.333Z,5.66
2023-04-26T01:48:01.315Z,5.69
2023-04-26T01:49:01.278Z,5.71
2023-04-26T01:50:02.196Z,5.64
2023-04-26T01:51:01.289Z,5.66
2023-04-26T01:52:01.297Z,5.64
2023-04-26T01:53:01.238Z,5.68
2023-04-26T01:54:01.220Z,5.68
2023-04-26T01:55:01.211Z,5.62
2023-04-26T01:56:01.209Z,5.59
2023-04-26T01:57:01.704Z,5.61
2023-04-26T01:58:01.175Z,5.64
2023-04-26T01:59:01.162Z,5.56
2023-04-26T02:00:01.153Z,5.64
2023-04-26T02:01:01.159Z,5.59
2023-04-26T02:02:01.289Z,5.69
2023-04-26T02:03:01.217Z,5.57
2023-04-26T02:04:01.115Z,5.62
2023-04-26T02:05:01.150Z,5.65
2023-04-26T02:06:01.129Z,5.66
2023-04-26T02:07:01.087Z,5.59
2023-04-26T02:08:01.073Z,5.64
2023-04-26T02:09:01.058Z,5.61
2023-04-26T02:10:01.055Z,5.59
2023-04-26T02:11:01.057Z,5.56
2023-04-26T02:12:01.022Z,5.48
2023-04-26T02:13:01.027Z,5.44
2023-04-26T02:14:01.007Z,5.44
2023-04-26T02:15:00.997Z,5.51
2023-04-26T02:16:01.028Z,5.56
2023-04-26T02:17:00.970Z,5.54
2023-04-26T02:18:01.110Z,5.51
2023-04-26T02:19:00.973Z,5.47
2023-04-26T02:20:00.939Z,5.44
2023-04-26T02:21:00.948Z,5.43
2023-04-26T02:22:00.915Z,5.44
2023-04-26T02:23:00.908Z,5.44
2023-04-26T02:24:00.905Z,5.50
2023-04-26T02:25:00.923Z,5.41
2023-04-26T02:26:00.886Z,5.41
2023-04-26T02:27:00.863Z,5.39
2023-04-26T02:28:00.877Z,5.44
2023-04-26T02:29:00.852Z,5.44
2023-04-26T02:30:00.851Z,5.39
2023-04-26T02:31:00.855Z,5.43
2023-04-26T02:32:01.150Z,5.44
2023-04-26T02:33:00.885Z,5.36
2023-04-26T02:34:00.797Z,5.41
2023-04-26T02:35:00.799Z,5.41
2023-04-26T02:36:00.785Z,5.44
2023-04-26T02:37:00.753Z,5.41
2023-04-26T02:38:00.771Z,5.41
2023-04-26T02:39:00.762Z,5.43
2023-04-26T02:40:00.780Z,5.39
2023-04-26T02:41:00.724Z,5.38
2023-04-26T02:42:00.701Z,5.33
2023-04-26T02:43:00.686Z,5.32
2023-04-26T02:44:00.672Z,5.38
2023-04-26T02:45:00.692Z,5.30
2023-04-26T02:46:00.673Z,5.32
2023-04-26T02:47:00.725Z,5.28
2023-04-26T02:48:00.710Z,5.26
2023-04-26T02:49:00.630Z,5.28
2023-04-26T02:50:00.671Z,5.29
2023-04-26T02:51:00.654Z,5.30
2023-04-26T02:52:00.590Z,5.23
2023-04-26T02:53:00.585Z,5.21
2023-04-26T02:54:00.579Z,5.30
2023-04-26T02:55:00.603Z,5.25
2023-04-26T02:56:00.545Z,5.25
2023-04-26T02:57:00.542Z,5.25
2023-04-26T02:58:00.533Z,5.26
2023-04-26T02:59:00.511Z,5.26
2023-04-26T03:00:00.551Z,5.26
2023-04-26T03:01:01.584Z,5.26
2023-04-26T03:02:00.489Z,5.23
2023-04-26T03:03:00.670Z,5.21
2023-04-26T03:04:00.599Z,5.25
2023-04-26T03:05:00.648Z,5.21
2023-04-26T03:06:00.428Z,5.17
2023-04-26T03:07:00.455Z,5.17
2023-04-26T03:08:00.420Z,5.21
2023-04-26T03:09:00.421Z,5.20
2023-04-26T03:10:00.407Z,5.17
2023-04-26T03:11:00.382Z,5.12
2023-04-26T03:12:00.375Z,5.18
2023-04-26T03:13:00.365Z,5.20
2023-04-26T03:14:00.383Z,5.15
2023-04-26T03:15:00.355Z,5.12
2023-04-26T03:16:00.334Z,5.20
2023-04-26T03:17:00.428Z,5.18
2023-04-26T03:18:00.379Z,5.07
2023-04-26T03:19:00.333Z,5.14
2023-04-26T03:20:02.526Z,5.15
2023-04-26T03:21:00.271Z,5.08
2023-04-26T03:22:00.272Z,5.10
2023-04-26T03:23:00.291Z,5.11
2023-04-26T03:24:00.247Z,5.15
2023-04-26T03:25:00.258Z,5.12
2023-04-26T03:26:00.230Z,5.12
2023-04-26T03:27:00.248Z,5.14
2023-04-26T03:28:00.209Z,5.15
2023-04-26T03:29:00.201Z,5.21
2023-04-26T03:30:00.199Z,5.18
2023-04-26T03:31:00.189Z,5.12
2023-04-26T03:32:00.300Z,5.18
2023-04-26T03:33:00.240Z,5.18
2023-04-26T03:34:00.138Z,5.23
2023-04-26T03:35:00.172Z,5.30
2023-04-26T03:36:00.148Z,5.25
2023-04-26T03:37:00.176Z,5.28
2023-04-26T03:38:00.150Z,5.29
2023-04-26T03:39:00.133Z,5.23
2023-04-26T03:40:00.199Z,5.20
2023-04-26T03:41:00.063Z,5.23
2023-04-26T03:42:00.082Z,5.11
2023-04-26T03:43:00.137Z,5.20
2023-04-26T03:44:00.096Z,5.08
2023-04-26T03:45:00.041Z,5.08
2023-04-26T03:46:00.059Z,5.10
2023-04-26T03:46:59.994Z,5.07
2023-04-26T03:48:00.061Z,5.07
2023-04-26T03:48:59.995Z,5.02
2023-04-26T03:50:00.012Z,5.00
2023-04-26T03:50:59.955Z,5.04
2023-04-26T03:51:59.977Z,5.12
2023-04-26T03:52:59.935Z,5.10
2023-04-26T03:53:59.916Z,5.05
2023-04-26T03:54:59.930Z,5.07
2023-04-26T03:55:59.905Z,5.07
2023-04-26T03:57:00.683Z,5.11
2023-04-26T03:57:59.968Z,5.04
2023-04-26T03:58:59.877Z,5.08
2023-04-26T03:59:59.867Z,5.02
2023-04-26T04:00:59.853Z,5.12
2023-04-26T04:01:59.873Z,4.99
2023-04-26T04:02:59.963Z,5.08
2023-04-26T04:04:00.078Z,5.07
2023-04-26T04:04:59.896Z,4.99
2023-04-26T04:05:59.790Z,4.97
2023-04-26T04:06:59.800Z,5.08
2023-04-26T04:07:59.780Z,5.08
2023-04-26T04:08:59.883Z,5.08
2023-04-26T04:09:59.744Z,5.05
2023-04-26T04:11:00.870Z,5.07
2023-04-26T04:11:59.722Z,5.08
2023-04-26T04:12:59.721Z,5.04
2023-04-26T04:13:59.703Z,5.07
2023-04-26T04:14:59.688Z,5.08
2023-04-26T04:16:00.146Z,5.04
2023-04-26T04:16:59.722Z,5.10
2023-04-26T04:17:59.753Z,5.08
2023-04-26T04:18:59.644Z,5.11
2023-04-26T04:19:59.688Z,5.08
2023-04-26T04:20:59.623Z,5.11
2023-04-26T04:21:59.608Z,5.14
2023-04-26T04:22:59.656Z,5.10
2023-04-26T04:23:59.614Z,5.18
2023-04-26T04:24:59.647Z,5.18
2023-04-26T04:25:59.579Z,5.14
2023-04-26T04:26:59.594Z,5.18
2023-04-26T04:27:59.548Z,5.18
2023-04-26T04:28:59.565Z,5.23
2023-04-26T04:29:59.528Z,5.21
2023-04-26T04:30:59.533Z,5.23
2023-04-26T04:31:59.517Z,5.25
2023-04-26T04:32:59.552Z,5.21
2023-04-26T04:33:59.485Z,5.18
2023-04-26T04:34:59.475Z,5.18
2023-04-26T04:35:59.502Z,5.25
2023-04-26T04:36:59.496Z,5.26
2023-04-26T04:37:59.432Z,5.26
2023-04-26T04:38:59.438Z,5.32
2023-04-26T04:39:59.433Z,5.29
2023-04-26T04:40:59.434Z,5.32
2023-04-26T04:41:59.395Z,5.35
2023-04-26T04:42:59.421Z,5.32
2023-04-26T04:43:59.397Z,5.30
2023-04-26T04:44:59.365Z,5.26
2023-04-26T04:45:59.395Z,5.28
2023-04-26T04:46:59.519Z,5.38
2023-04-26T04:47:59.342Z,5.44
2023-04-26T04:48:59.363Z,5.43
2023-04-26T04:49:59.308Z,5.36
2023-04-26T04:50:59.301Z,5.46
2023-04-26T04:51:59.284Z,5.38
2023-04-26T04:52:59.304Z,5.44
2023-04-26T04:53:59.272Z,5.41
2023-04-26T04:54:59.254Z,5.41
2023-04-26T04:55:59.257Z,5.44
2023-04-26T04:56:59.234Z,5.43
2023-04-26T04:57:59.228Z,5.50
2023-04-26T04:58:59.306Z,5.50
2023-04-26T04:59:59.195Z,5.50
2023-04-26T05:00:59.217Z,5.54
2023-04-26T05:01:59.207Z,5.44
2023-04-26T05:02:59.251Z,5.43
2023-04-26T05:03:59.407Z,5.47
2023-04-26T05:04:59.184Z,5.59
2023-04-26T05:05:59.182Z,5.65
2023-04-26T05:06:59.148Z,5.66
2023-04-26T05:07:59.210Z,5.56
2023-04-26T05:08:59.109Z,5.59
2023-04-26T05:09:59.089Z,5.62
2023-04-26T05:10:59.085Z,5.68
2023-04-26T05:11:59.091Z,5.65
2023-04-26T05:12:59.054Z,5.69
2023-04-26T05:13:59.329Z,5.66
2023-04-26T05:14:59.083Z,5.64
2023-04-26T05:15:59.074Z,5.68
2023-04-26T05:16:59.016Z,5.76
2023-04-26T05:17:59.044Z,5.76
2023-04-26T05:18:59.003Z,5.73
2023-04-26T05:19:58.999Z,5.83
2023-04-26T05:20:58.976Z,5.82
2023-04-26T05:21:58.998Z,5.91
2023-04-26T05:22:58.951Z,5.91
2023-04-26T05:23:58.946Z,5.99
2023-04-26T05:24:58.951Z,5.98
2023-04-26T05:25:58.916Z,5.99
2023-04-26T05:26:58.912Z,6.01
2023-04-26T05:27:58.920Z,5.98
2023-04-26T05:28:58.916Z,5.97
2023-04-26T05:29:58.878Z,5.99
2023-04-26T05:30:58.883Z,6.09
2023-04-26T05:31:58.891Z,6.12
2023-04-26T05:32:58.898Z,6.09
2023-04-26T05:33:58.831Z,6.05
2023-04-26T05:34:58.824Z,6.05
2023-04-26T05:35:58.820Z,6.14
2023-04-26T05:36:58.817Z,6.16
2023-04-26T05:37:58.800Z,6.22
2023-04-26T05:38:58.792Z,6.35
2023-04-26T05:39:58.767Z,6.39
2023-04-26T05:40:58.785Z,6.41
2023-04-26T05:41:58.749Z,6.45
2023-04-26T05:42:58.728Z,6.48
2023-04-26T05:43:58.723Z,6.52
2023-04-26T05:44:58.733Z,6.63
2023-04-26T05:45:58.799Z,6.69
2023-04-26T05:46:58.700Z,6.70
2023-04-26T05:47:58.697Z,6.78
2023-04-26T05:48:58.676Z,6.92
2023-04-26T05:49:58.661Z,6.95
2023-04-26T05:50:58.655Z,7.00
2023-04-26T05:51:58.626Z,7.10
2023-04-26T05:52:58.622Z,7.13
2023-04-26T05:53:58.603Z,7.13
2023-04-26T05:54:58.601Z,7.24
2023-04-26T05:55:58.602Z,7.14
2023-04-26T05:56:59.233Z,7.38
2023-04-26T05:57:58.602Z,7.38
2023-04-26T05:58:58.552Z,7.43
2023-04-26T05:59:58.538Z,7.56
2023-04-26T06:00:58.539Z,7.58
2023-04-26T06:01:58.588Z,7.75
2023-04-26T06:02:58.691Z,7.82
2023-04-26T06:04:00.613Z,7.79
2023-04-26T06:04:58.687Z,7.98
2023-04-26T06:05:58.482Z,8.16
2023-04-26T06:06:58.458Z,8.24
2023-04-26T06:07:58.444Z,8.23
2023-04-26T06:08:58.447Z,8.30
2023-04-26T06:09:58.507Z,8.46
2023-04-26T06:10:58.432Z,8.55
2023-04-26T06:11:58.411Z,8.58
2023-04-26T06:12:58.416Z,8.70
2023-04-26T06:13:58.395Z,8.89
2023-04-26T06:14:58.414Z,9.02
2023-04-26T06:15:58.372Z,9.22
2023-04-26T06:16:58.423Z,9.41
2023-04-26T06:17:58.424Z,9.54
2023-04-26T06:18:58.342Z,9.65
2023-04-26T06:19:58.343Z,9.77
2023-04-26T06:20:58.314Z,9.87
2023-04-26T06:21:58.303Z,9.99
2023-04-26T06:22:58.284Z,10.19
2023-04-26T06:23:58.297Z,10.22
2023-04-26T06:24:58.281Z,10.35
2023-04-26T06:25:58.250Z,10.48
2023-04-26T06:26:58.253Z,10.53
2023-04-26T06:27:58.228Z,10.48
2023-04-26T06:28:58.230Z,10.86
2023-04-26T06:29:58.227Z,11.12
2023-04-26T06:30:58.341Z,11.37
2023-04-26T06:31:58.184Z,11.63
2023-04-26T06:32:58.191Z,12.15
2023-04-26T06:33:58.172Z,12.42
2023-04-26T06:34:58.214Z,12.54
2023-04-26T06:35:58.218Z,12.78
2023-04-26T06:36:58.138Z,13.08
2023-04-26T06:37:58.116Z,13.59
2023-04-26T06:38:58.399Z,14.04
2023-04-26T06:39:58.708Z,14.18
2023-04-26T06:40:58.108Z,14.51
2023-04-26T06:41:58.083Z,14.82
2023-04-26T06:42:58.075Z,15.22
2023-04-26T06:43:58.084Z,15.40
2023-04-26T06:44:58.054Z,15.47
2023-04-26T06:45:58.046Z,15.80
2023-04-26T06:46:58.032Z,16.10
2023-04-26T06:47:58.072Z,16.16
2023-04-26T06:48:58.028Z,16.58
2023-04-26T06:49:57.989Z,16.93
2023-04-26T06:50:58.013Z,17.16
2023-04-26T06:51:57.984Z,17.51
2023-04-26T06:52:58.141Z,17.83
2023-04-26T06:53:57.950Z,18.23
2023-04-26T06:54:58.002Z,18.45
2023-04-26T06:55:57.928Z,18.73
2023-04-26T06:56:59.390Z,18.80
2023-04-26T06:57:57.919Z,19.00
2023-04-26T06:58:57.891Z,19.33
2023-04-26T06:59:57.884Z,19.67
2023-04-26T07:00:58.284Z,20.06
2023-04-26T07:01:57.885Z,20.58
2023-04-26T07:02:58.111Z,21.03
2023-04-26T07:03:58.318Z,21.45
2023-04-26T07:04:57.967Z,21.15
2023-04-26T07:05:57.807Z,20.21
2023-04-26T07:06:57.965Z,19.70
2023-04-26T07:07:57.812Z,19.49
2023-04-26T07:08:58.881Z,18.74
2023-04-26T07:09:57.767Z,18.49
2023-04-26T07:10:57.968Z,19.48
2023-04-26T07:11:57.740Z,20.48
2023-04-26T07:12:57.812Z,21.39
2023-04-26T07:13:57.777Z,21.85
2023-04-26T07:14:58.032Z,22.10
2023-04-26T07:15:57.712Z,22.25
2023-04-26T07:16:57.686Z,22.88
2023-04-26T07:17:57.698Z,23.37
2023-04-26T07:18:57.686Z,23.68
2023-04-26T07:19:57.673Z,24.10
2023-04-26T07:20:57.768Z,24.42
2023-04-26T07:21:57.651Z,24.54
2023-04-26T07:22:57.856Z,24.45
2023-04-26T07:23:57.626Z,24.20
2023-04-26T07:24:57.599Z,22.76
2023-04-26T07:25:57.917Z,20.96
2023-04-26T07:26:57.796Z,20.51
2023-04-26T07:27:57.572Z,19.81
2023-04-26T07:28:57.568Z,18.84
2023-04-26T07:29:57.558Z,19.58
2023-04-26T07:30:57.534Z,20.81
2023-04-26T07:31:57.516Z,21.25
2023-04-26T07:32:57.707Z,20.97
2023-04-26T07:33:57.571Z,21.96
2023-04-26T07:34:57.484Z,22.50
2023-04-26T07:35:57.495Z,23.46
2023-04-26T07:36:57.480Z,24.20
2023-04-26T07:37:57.458Z,24.36
2023-04-26T07:38:57.472Z,24.01
2023-04-26T07:39:57.430Z,23.51
2023-04-26T07:40:57.417Z,21.73
2023-04-26T07:41:57.427Z,20.02
2023-04-26T07:42:57.418Z,20.22
2023-04-26T07:43:57.388Z,21.75
2023-04-26T07:44:57.379Z,22.70
2023-04-26T07:45:57.363Z,23.50
2023-04-26T07:46:57.353Z,23.98
2023-04-26T07:47:57.392Z,24.03
2023-04-26T07:48:57.334Z,24.28
2023-04-26T07:49:57.328Z,23.74
2023-04-26T07:50:57.336Z,21.67
2023-04-26T07:51:57.300Z,20.00
2023-04-26T07:52:57.287Z,19.59
2023-04-26T07:53:57.353Z,20.36
2023-04-26T07:54:57.288Z,19.85
2023-04-26T07:55:57.293Z,19.22
2023-04-26T07:56:57.258Z,18.58
2023-04-26T07:57:57.230Z,17.67
2023-04-26T07:58:58.239Z,17.11
2023-04-26T07:59:57.229Z,16.71
2023-04-26T08:00:57.209Z,17.01
2023-04-26T08:01:57.209Z,16.41
2023-04-26T08:02:57.458Z,15.77
2023-04-26T08:03:57.753Z,15.59
2023-04-26T08:04:57.397Z,15.94
2023-04-26T08:05:57.275Z,16.42
2023-04-26T08:06:57.195Z,16.71
2023-04-26T08:07:57.221Z,16.86
2023-04-26T08:08:57.153Z,16.51
2023-04-26T08:09:57.223Z,17.74
2023-04-26T08:10:57.208Z,18.07
2023-04-26T08:11:57.141Z,17.16
2023-04-26T08:12:57.062Z,16.28
2023-04-26T08:13:57.050Z,15.70
2023-04-26T08:14:57.055Z,15.28
2023-04-26T08:15:57.029Z,15.07
2023-04-26T08:16:57.073Z,14.88
2023-04-26T08:17:57.058Z,14.62
2023-04-26T08:18:57.013Z,14.26
2023-04-26T08:19:56.988Z,13.93
2023-04-26T08:20:56.972Z,13.59
2023-04-26T08:21:56.964Z,13.04
2023-04-26T08:22:56.953Z,12.65
2023-04-26T08:23:56.950Z,12.42
2023-04-26T08:24:56.974Z,12.24
2023-04-26T08:25:56.916Z,11.88
2023-04-26T08:26:56.963Z,11.84
2023-04-26T08:27:56.894Z,11.87
2023-04-26T08:28:56.888Z,12.09
2023-04-26T08:29:57.036Z,12.32
2023-04-26T08:30:56.886Z,13.31
2023-04-26T08:31:56.860Z,14.29
2023-04-26T08:32:56.931Z,14.73
2023-04-26T08:33:56.844Z,16.29
2023-04-26T08:34:56.855Z,18.38
2023-04-26T08:35:56.807Z,19.15
2023-04-26T08:36:56.839Z,20.47
2023-04-26T08:37:56.790Z,21.20
2023-04-26T08:38:56.794Z,21.95
2023-04-26T08:39:56.776Z,22.72
2023-04-26T08:40:56.758Z,23.27
2023-04-26T08:41:56.780Z,23.61
2023-04-26T08:42:56.764Z,22.80
2023-04-26T08:43:56.758Z,21.50
2023-04-26T08:44:56.758Z,20.41
2023-04-26T08:45:56.726Z,19.91
2023-04-26T08:46:56.688Z,19.49
2023-04-26T08:47:56.743Z,18.40
2023-04-26T08:48:56.678Z,17.23
2023-04-26T08:49:56.698Z,16.33
2023-04-26T08:50:56.643Z,15.28
2023-04-26T08:51:56.671Z,14.58
2023-04-26T08:52:56.629Z,13.65
2023-04-26T08:53:56.612Z,12.95
2023-04-26T08:54:56.624Z,12.55
2023-04-26T08:55:56.619Z,12.90
2023-04-26T08:56:56.574Z,14.25
2023-04-26T08:57:56.579Z,15.80
2023-04-26T08:58:56.601Z,18.25
2023-04-26T08:59:56.572Z,20.07
2023-04-26T09:00:56.535Z,21.21
2023-04-26T09:01:56.566Z,22.25
2023-04-26T09:02:56.676Z,23.17
2023-04-26T09:03:57.184Z,24.38
2023-04-26T09:04:56.646Z,25.47
2023-04-26T09:05:56.478Z,25.59
2023-04-26T09:06:56.486Z,25.29
2023-04-26T09:07:56.460Z,24.85
2023-04-26T09:08:56.444Z,24.24
2023-04-26T09:09:56.477Z,23.24
2023-04-26T09:12:12.170Z,20.37
2023-04-26T09:13:12.203Z,18.90
2023-04-26T09:14:12.277Z,17.86
2023-04-26T09:15:12.159Z,17.36
2023-04-26T09:16:12.155Z,17.08
2023-04-26T09:17:12.118Z,16.76
2023-04-26T09:18:12.114Z,16.56
2023-04-26T09:19:12.128Z,16.42
2023-04-26T09:20:12.083Z,16.33
2023-04-26T09:21:12.083Z,16.26
2023-04-26T09:22:12.082Z,16.09
2023-04-26T09:23:12.050Z,15.91
2023-04-26T09:24:12.269Z,15.73
2023-04-26T09:25:12.016Z,15.54
2023-04-26T09:26:12.046Z,15.39
2023-04-26T09:27:12.002Z,15.29
2023-04-26T09:28:11.989Z,15.19
2023-04-26T09:29:11.979Z,15.03
2023-04-26T09:30:12.084Z,14.73
2023-04-26T09:31:12.033Z,14.55
2023-04-26T09:32:11.952Z,14.53
2023-04-26T09:33:11.974Z,14.60
2023-04-26T09:34:11.932Z,15.28
2023-04-26T09:35:11.915Z,16.39
2023-04-26T09:36:12.378Z,17.01
2023-04-26T09:37:11.888Z,18.10
2023-04-26T09:38:13.314Z,18.70
2023-04-26T09:39:11.865Z,18.37
2023-04-26T09:40:11.854Z,18.00
2023-04-26T09:41:11.881Z,17.82
2023-04-26T09:42:11.855Z,17.63
2023-04-26T09:43:11.889Z,17.26
2023-04-26T09:44:11.809Z,16.94
2023-04-26T09:45:11.804Z,16.39
2023-04-26T09:46:11.956Z,16.17
2023-04-26T09:47:11.932Z,15.68
2023-04-26T09:48:11.778Z,15.51
2023-04-26T09:49:11.768Z,15.44
2023-04-26T09:50:11.749Z,15.47
2023-04-26T09:51:11.777Z,15.35
2023-04-26T09:52:11.727Z,15.55
2023-04-26T09:53:11.719Z,17.04
2023-04-26T09:54:11.703Z,18.41
2023-04-26T09:55:19.071Z,18.22
2023-04-26T09:56:12.699Z,17.56
2023-04-26T09:57:11.680Z,17.23
2023-04-26T09:58:11.657Z,16.75
2023-04-26T09:59:11.650Z,16.33
2023-04-26T10:00:11.683Z,16.00
2023-04-26T10:01:11.873Z,15.82
2023-04-26T10:02:12.074Z,15.62
2023-04-26T10:03:11.735Z,17.20
2023-04-26T10:04:12.492Z,18.81
2023-04-26T10:05:11.615Z,19.70
2023-04-26T10:06:11.570Z,19.52
2023-04-26T10:07:11.552Z,18.83
2023-04-26T10:08:11.548Z,18.16
2023-04-26T10:09:11.543Z,17.51
2023-04-26T10:10:11.561Z,17.02
2023-04-26T10:11:11.610Z,16.60
2023-04-26T10:12:11.500Z,16.31
2023-04-26T10:13:11.488Z,15.95
2023-04-26T10:14:11.476Z,15.67
2023-04-26T10:15:11.499Z,15.37
2023-04-26T10:16:11.502Z,15.10
2023-04-26T10:17:11.448Z,14.85
2023-04-26T10:18:11.619Z,14.62
2023-04-26T10:19:11.441Z,14.50
2023-04-26T10:20:11.422Z,14.53
2023-04-26T10:21:11.406Z,14.82
2023-04-26T10:22:11.392Z,15.37
2023-04-26T10:23:11.378Z,16.32
2023-04-26T10:24:11.389Z,16.39
2023-04-26T10:25:11.355Z,17.59
2023-04-26T10:26:11.345Z,17.92
2023-04-26T10:27:11.357Z,18.84
2023-04-26T10:28:11.332Z,19.24
2023-04-26T10:29:11.312Z,19.21
2023-04-26T10:30:11.324Z,18.93
2023-04-26T10:31:11.292Z,18.35
2023-04-26T10:32:11.291Z,17.82
2023-04-26T10:33:11.307Z,17.34
2023-04-26T10:34:11.979Z,16.89
2023-04-26T10:35:11.866Z,16.42
2023-04-26T10:36:11.255Z,16.23
2023-04-26T10:37:11.263Z,15.86
2023-04-26T10:38:11.211Z,15.57
2023-04-26T10:39:11.222Z,15.27
2023-04-26T10:40:11.201Z,14.91
2023-04-26T10:41:11.203Z,14.50
2023-04-26T10:42:11.187Z,14.28
2023-04-26T10:43:11.183Z,13.93
2023-04-26T10:44:11.164Z,13.72
2023-04-26T10:45:11.144Z,13.52
2023-04-26T10:46:11.144Z,13.49
2023-04-26T10:47:11.125Z,13.35
2023-04-26T10:48:11.104Z,13.16
2023-04-26T10:49:11.090Z,13.01
2023-04-26T10:50:11.326Z,12.80
2023-04-26T10:51:11.085Z,12.79
2023-04-26T10:52:11.062Z,12.76
2023-04-26T10:53:11.054Z,12.61
2023-04-26T10:54:11.038Z,12.55
2023-04-26T10:55:11.049Z,12.46
2023-04-26T10:56:11.015Z,12.42
2023-04-26T10:57:11.000Z,12.37
2023-04-26T10:58:11.874Z,12.46
2023-04-26T10:59:28.425Z,12.60
2023-04-26T11:00:11.966Z,12.72
2023-04-26T11:01:11.027Z,12.93
2023-04-26T11:02:10.963Z,13.11
2023-04-26T11:03:11.011Z,13.39
2023-04-26T11:04:10.985Z,13.83
2023-04-26T11:05:10.928Z,14.59
2023-04-26T11:06:10.928Z,16.02
2023-04-26T11:07:10.890Z,16.56
2023-04-26T11:08:11.838Z,16.89
2023-04-26T11:09:10.873Z,16.93
2023-04-26T11:10:10.890Z,16.84
2023-04-26T11:11:10.861Z,16.83
2023-04-26T11:12:10.856Z,16.71
2023-04-26T11:13:10.820Z,16.21
2023-04-26T11:14:10.852Z,15.65
2023-04-26T11:15:10.801Z,15.25
2023-04-26T11:16:10.856Z,14.94
2023-04-26T11:17:10.920Z,14.51
2023-04-26T11:18:10.770Z,14.47
2023-04-26T11:19:10.781Z,14.15
2023-04-26T11:20:10.746Z,14.11
2023-04-26T11:21:10.746Z,13.99
2023-04-26T11:22:10.758Z,13.93
2023-04-26T11:23:10.739Z,13.72
2023-04-26T11:24:10.704Z,13.68
2023-04-26T11:25:10.696Z,13.74
2023-04-26T11:26:10.726Z,13.74
2023-04-26T11:27:10.971Z,13.54
2023-04-26T11:28:10.659Z,13.65
2023-04-26T11:29:10.657Z,13.65
2023-04-26T11:30:10.716Z,13.62
2023-04-26T11:31:10.676Z,13.67
2023-04-26T11:32:10.656Z,13.79
2023-04-26T11:33:10.626Z,13.96
2023-04-26T11:34:10.596Z,14.25
2023-04-26T11:35:10.584Z,14.62
2023-04-26T11:36:10.588Z,14.81
2023-04-26T11:37:10.555Z,14.96
2023-04-26T11:38:10.568Z,15.00
2023-04-26T11:39:13.667Z,15.27
2023-04-26T11:40:10.525Z,15.52
2023-04-26T11:41:10.559Z,15.43
2023-04-26T11:42:10.498Z,15.27
2023-04-26T11:43:10.491Z,15.42
2023-04-26T11:44:10.496Z,15.61
2023-04-26T11:45:10.489Z,15.76
2023-04-26T11:46:10.587Z,15.73
2023-04-26T11:47:10.531Z,15.58
2023-04-26T11:48:10.537Z,15.67
2023-04-26T11:49:10.459Z,15.62
2023-04-26T11:50:10.417Z,15.49
2023-04-26T11:51:10.413Z,15.52
2023-04-26T11:52:10.405Z,15.39
2023-04-26T11:53:10.418Z,15.14
2023-04-26T11:54:10.530Z,15.00
2023-04-26T11:55:10.365Z,14.78
2023-04-26T11:56:10.350Z,14.51
2023-04-26T11:57:10.352Z,14.32
2023-04-26T11:58:10.534Z,13.97
2023-04-26T11:59:10.321Z,13.71
2023-04-26T12:00:10.323Z,13.49
2023-04-26T12:01:10.309Z,13.27
2023-04-26T12:02:10.355Z,13.16
2023-04-26T12:03:10.553Z,13.03
2023-04-26T12:04:10.482Z,13.03
2023-04-26T12:05:10.376Z,13.04
2023-04-26T12:06:10.256Z,12.95
2023-04-26T12:07:10.249Z,13.03
2023-04-26T12:08:10.235Z,12.98
2023-04-26T12:09:10.208Z,13.03
2023-04-26T12:10:11.027Z,13.16
2023-04-26T12:11:10.188Z,13.35
2023-04-26T12:12:10.246Z,13.42
2023-04-26T12:13:10.160Z,13.62
2023-04-26T12:14:10.396Z,14.11
2023-04-26T12:15:10.158Z,14.79
2023-04-26T12:16:22.487Z,15.18
2023-04-26T12:17:11.190Z,15.46
2023-04-26T12:18:10.714Z,15.64
2023-04-26T12:19:10.207Z,16.02
2023-04-26T12:20:10.107Z,16.36
2023-04-26T12:21:10.090Z,16.65
2023-04-26T12:22:10.088Z,16.76
2023-04-26T12:23:10.080Z,16.60
2023-04-26T12:24:10.089Z,16.50
2023-04-26T12:25:10.086Z,16.43
2023-04-26T12:26:11.092Z,16.49
2023-04-26T12:27:10.019Z,16.53
2023-04-26T12:28:10.267Z,16.23
2023-04-26T12:29:09.999Z,16.17
2023-04-26T12:30:09.998Z,16.05
2023-04-26T12:31:10.953Z,15.83
2023-04-26T12:32:10.007Z,15.67
2023-04-26T12:34:10.953Z,15.37
2023-04-26T12:35:09.985Z,15.28
2023-04-26T12:36:09.914Z,15.18
2023-04-26T12:37:09.902Z,14.91
2023-04-26T12:38:10.106Z,14.79
2023-04-26T12:39:09.880Z,14.50
2023-04-26T12:40:09.867Z,14.47
2023-04-26T12:41:09.868Z,14.12
2023-04-26T12:42:09.903Z,13.96
2023-04-26T12:43:09.834Z,13.95
2023-04-26T12:44:09.941Z,13.92
2023-04-26T12:45:09.820Z,13.72
2023-04-26T12:46:09.912Z,13.63
2023-04-26T12:47:09.789Z,13.60
2023-04-26T12:48:09.912Z,13.54
2023-04-26T12:49:09.828Z,13.52
2023-04-26T12:50:10.108Z,13.46
2023-04-26T12:51:09.797Z,13.33
2023-04-26T12:52:09.823Z,13.47
2023-04-26T12:53:09.739Z,13.42
2023-04-26T12:54:09.768Z,13.47
2023-04-26T12:55:09.747Z,13.44
2023-04-26T12:56:09.719Z,13.46
2023-04-26T12:57:09.938Z,13.47
2023-04-26T12:58:09.716Z,13.52
2023-04-26T12:59:09.666Z,13.57
2023-04-26T13:00:10.458Z,13.74
2023-04-26T13:01:09.739Z,14.03
2023-04-26T13:02:10.476Z,14.05
2023-04-26T13:03:09.773Z,14.28
2023-04-26T13:04:09.819Z,14.51
2023-04-26T13:05:09.647Z,14.59
2023-04-26T13:06:09.633Z,15.18
2023-04-26T13:07:09.587Z,15.39